Time;durP1;ratioP1;P1;durP2;ratioP2;P2;SDS_P1;SDS_P2;PMS_P1;PMS_P2;Temp;Humidity;BMP_temperature;BMP_pressure;BME280_temperature;BME280_humidity;BME280_pressure;Samples;Min_cycle;Max_cycle;Signal;HPM_P1;HPM_P2
2023/02/05 00:04:25;;;;;;;14.82;9.48;;;20.80;70.70;;;;;;5094676;27;21194;-64
2023/02/05 00:06:51;;;;;;;18.23;10.20;;;20.80;71.40;;;;;;5091509;28;20189;-60
2023/02/05 00:09:18;;;;;;;13.18;8.75;;;20.80;71.40;;;;;;5104172;28;20197;-60
2023/02/05 00:11:45;;;;;;;11.13;8.07;;;20.80;71.40;;;;;;5097484;28;20832;-61
2023/02/05 00:14:11;;;;;;;13.52;8.75;;;20.70;71.40;;;;;;5094468;28;20201;-65
2023/02/05 00:16:38;;;;;;;13.35;9.13;;;20.70;71.50;;;;;;5093003;28;20190;-63
2023/02/05 00:19:05;;;;;;;18.17;8.67;;;20.70;71.50;;;;;;5090834;28;20206;-62
2023/02/05 00:21:33;;;;;;;14.27;8.20;;;20.80;71.40;;;;;;5101579;28;20826;-63
2023/02/05 00:23:59;;;;;;;11.50;7.20;;;20.80;71.20;;;;;;5095548;28;20474;-63
2023/02/05 00:26:26;;;;;;;13.95;8.90;;;20.80;71.20;;;;;;5094339;28;20463;-63
2023/02/05 00:28:53;;;;;;;13.53;8.67;;;20.80;71.10;;;;;;5103141;28;20196;-62
2023/02/05 00:31:22;;;;;;;9.82;6.80;;;20.80;71.10;;;;;;5090060;28;20463;-61
2023/02/05 00:33:49;;;;;;;10.30;7.18;;;20.80;71.10;;;;;;5096887;28;20199;-62
2023/02/05 00:36:17;;;;;;;12.90;8.50;;;20.80;71.10;;;;;;5089875;28;20571;-63
2023/02/05 00:38:46;;;;;;;15.60;9.48;;;20.80;71.00;;;;;;5096446;28;20193;-63
2023/02/05 00:41:13;;;;;;;14.63;8.73;;;20.80;71.10;;;;;;5089260;28;20225;-63
2023/02/05 00:43:41;;;;;;;11.23;8.07;;;20.50;68.30;;;;;;5097030;28;20217;-63
2023/02/05 00:46:09;;;;;;;13.90;7.40;;;20.50;69.20;;;;;;5099348;28;20197;-62
2023/02/05 00:48:36;;;;;;;10.73;7.60;;;20.60;69.90;;;;;;5100241;28;20212;-62
2023/02/05 00:51:03;;;;;;;11.23;7.50;;;20.60;69.90;;;;;;5086826;28;20664;-64
2023/02/05 00:53:29;;;;;;;14.13;7.97;;;20.60;70.00;;;;;;5091582;28;20209;-62
2023/02/05 00:55:57;;;;;;;10.95;8.35;;;20.60;70.10;;;;;;5092805;28;20208;-63
2023/02/05 00:58:24;;;;;;;13.70;8.15;;;20.60;70.10;;;;;;5087200;28;20197;-63
2023/02/05 01:00:51;;;;;;;10.35;7.57;;;20.60;70.20;;;;;;5090515;28;20584;-63
2023/02/05 01:03:18;;;;;;;11.43;8.05;;;20.60;70.20;;;;;;5091548;28;20219;-62
2023/02/05 01:05:45;;;;;;;10.45;7.45;;;20.60;70.20;;;;;;5097884;28;20832;-63
2023/02/05 01:08:12;;;;;;;7.70;6.65;;;20.60;70.20;;;;;;5104559;28;20387;-63
2023/02/05 01:10:43;;;;;;;10.65;7.00;;;20.60;70.20;;;;;;5099029;28;20209;-63
2023/02/05 01:13:11;;;;;;;13.73;8.73;;;20.60;70.20;;;;;;5092377;28;20218;-63
2023/02/05 01:15:38;;;;;;;15.82;6.80;;;20.60;70.20;;;;;;5082782;28;20190;-63
2023/02/05 01:18:05;;;;;;;10.20;7.38;;;20.50;70.10;;;;;;5081523;28;20197;-64
2023/02/05 01:20:32;;;;;;;9.95;7.00;;;20.50;70.20;;;;;;5089139;28;20203;-61
2023/02/05 01:22:58;;;;;;;9.25;6.75;;;20.50;70.10;;;;;;5076033;28;20221;-62
2023/02/05 01:25:25;;;;;;;9.77;7.82;;;20.50;70.20;;;;;;5081012;28;20676;-63
2023/02/05 01:27:52;;;;;;;9.65;7.30;;;20.50;70.20;;;;;;5081111;28;20689;-63
2023/02/05 01:30:20;;;;;;;11.57;6.50;;;20.50;70.20;;;;;;5075897;28;20202;-63
2023/02/05 01:32:46;;;;;;;10.73;7.88;;;20.50;70.20;;;;;;5071506;28;20201;-63
2023/02/05 01:35:13;;;;;;;7.65;6.85;;;20.50;70.10;;;;;;5084516;28;20199;-62
2023/02/05 01:37:40;;;;;;;10.77;6.55;;;20.50;70.20;;;;;;5086948;28;20206;-63
2023/02/05 01:40:07;;;;;;;7.95;6.72;;;20.50;70.20;;;;;;5085056;28;20202;-63
2023/02/05 01:42:34;;;;;;;13.38;7.30;;;20.40;70.10;;;;;;5081532;28;20657;-62
2023/02/05 01:45:49;;;;;;;13.07;7.35;;;20.40;70.10;;;;;;5077550;28;20199;-63
2023/02/05 01:48:18;;;;;;;9.20;6.28;;;20.40;70.10;;;;;;5073915;28;20206;-63
2023/02/05 01:50:48;;;;;;;9.85;6.72;;;20.40;70.10;;;;;;5077495;28;20206;-63
2023/02/05 01:53:21;;;;;;;8.50;6.53;;;20.40;70.10;;;;;;5082676;28;20204;-63
2023/02/05 01:55:53;;;;;;;9.13;7.07;;;20.40;70.10;;;;;;5083347;28;20203;-63
2023/02/05 01:58:20;;;;;;;7.78;6.43;;;20.40;70.10;;;;;;5075507;28;20206;-63
2023/02/05 02:00:48;;;;;;;9.73;6.30;;;20.40;70.10;;;;;;5083014;28;20552;-63
2023/02/05 02:03:15;;;;;;;8.35;6.70;;;20.40;70.10;;;;;;5080539;28;20694;-62
2023/02/05 02:05:42;;;;;;;8.35;6.70;;;20.40;70.10;;;;;;5087991;28;20227;-63
2023/02/05 02:08:10;;;;;;;8.63;6.60;;;20.40;70.10;;;;;;5085314;28;20580;-63
2023/02/05 02:10:37;;;;;;;10.98;6.38;;;20.30;70.00;;;;;;5076381;28;20205;-63
2023/02/05 02:13:04;;;;;;;7.80;6.43;;;20.30;70.00;;;;;;5080839;28;20228;-63
2023/02/05 02:15:31;;;;;;;8.57;7.20;;;20.30;70.00;;;;;;5074391;28;20205;-64
2023/02/05 02:20:43;;;;;;;10.45;7.07;;;20.30;70.00;;;;;;5085845;28;20276;-64
2023/02/05 02:23:22;;;;;;;8.82;6.20;;;20.30;70.00;;;;;;5082189;28;20210;-63
2023/02/05 02:26:10;;;;;;;9.20;6.88;;;20.30;70.00;;;;;;5081494;28;20195;-62
2023/02/05 02:28:45;;;;;;;8.57;6.10;;;20.30;70.00;;;;;;5089980;28;20204;-63
2023/02/05 02:31:15;;;;;;;7.03;6.03;;;20.30;70.00;;;;;;5074788;28;20205;-63
2023/02/05 02:33:47;;;;;;;10.13;5.97;;;20.30;70.00;;;;;;5082728;28;20220;-63
2023/02/05 02:36:19;;;;;;;8.57;6.22;;;20.20;69.90;;;;;;5084315;28;20630;-63
2023/02/05 02:38:55;;;;;;;8.77;5.97;;;20.20;69.90;;;;;;5078587;28;20200;-61
2023/02/05 02:41:28;;;;;;;9.48;6.38;;;20.20;69.90;;;;;;5079194;28;20190;-63
2023/02/05 02:43:58;;;;;;;8.82;6.53;;;20.20;69.80;;;;;;5080091;28;20197;-64
2023/02/05 02:46:29;;;;;;;7.63;5.63;;;20.20;69.80;;;;;;5078928;28;20196;-65
2023/02/05 02:49:01;;;;;;;6.28;5.65;;;20.20;69.80;;;;;;5082134;28;20275;-63
2023/02/05 02:51:29;;;;;;;8.15;6.15;;;20.20;69.80;;;;;;5088119;28;20572;-64
2023/02/05 02:53:58;;;;;;;8.10;5.55;;;20.20;69.80;;;;;;5080535;28;20236;-64
2023/02/05 02:56:28;;;;;;;7.55;6.18;;;20.20;69.90;;;;;;5090055;28;20674;-65
2023/02/05 02:59:01;;;;;;;9.48;6.40;;;20.10;69.80;;;;;;5085911;28;20194;-64
2023/02/05 03:01:33;;;;;;;7.07;6.28;;;20.10;69.80;;;;;;5076682;28;20207;-64
2023/02/05 03:04:04;;;;;;;7.50;5.22;;;20.10;69.80;;;;;;5079183;28;20284;-62
2023/02/05 03:06:32;;;;;;;10.52;6.10;;;20.10;69.70;;;;;;5084804;28;20598;-62
2023/02/05 03:09:03;;;;;;;7.55;5.78;;;20.10;69.70;;;;;;5087368;28;20565;-62
2023/02/05 03:11:30;;;;;;;7.70;5.57;;;20.10;69.70;;;;;;5076962;28;20235;-62
2023/02/05 03:13:58;;;;;;;8.07;5.95;;;20.10;69.70;;;;;;5077716;28;20222;-62
2023/02/05 03:16:26;;;;;;;7.10;5.55;;;20.10;69.70;;;;;;5081705;28;20204;-62
2023/02/05 03:18:54;;;;;;;7.70;5.22;;;20.10;69.80;;;;;;5083866;28;20201;-63
2023/02/05 03:21:25;;;;;;;7.18;5.68;;;20.10;69.80;;;;;;5080002;28;20198;-63
2023/02/05 03:23:52;;;;;;;8.65;5.80;;;20.10;69.80;;;;;;5075177;28;20216;-63
2023/02/05 03:26:24;;;;;;;9.65;6.43;;;20.10;69.80;;;;;;5085280;28;20201;-64
2023/02/05 03:28:51;;;;;;;8.95;6.50;;;20.10;69.80;;;;;;5086197;28;20202;-63
2023/02/05 03:31:22;;;;;;;8.05;5.55;;;20.10;69.70;;;;;;5086154;28;20216;-63
2023/02/05 03:33:57;;;;;;;7.78;5.85;;;20.10;69.70;;;;;;5073693;28;20704;-62
2023/02/05 03:36:33;;;;;;;7.53;5.68;;;20.10;69.70;;;;;;5070485;28;20205;-63
2023/02/05 03:39:11;;;;;;;8.00;5.82;;;20.00;69.60;;;;;;5081843;28;20196;-64
2023/02/05 03:41:55;;;;;;;7.00;5.80;;;20.00;69.60;;;;;;5072021;28;20357;-62
2023/02/05 03:44:38;;;;;;;7.32;5.68;;;20.00;69.60;;;;;;5073698;28;20200;-63
2023/02/05 03:47:13;;;;;;;6.57;5.78;;;20.00;69.60;;;;;;5078181;28;20204;-63
2023/02/05 03:49:51;;;;;;;6.07;4.95;;;20.00;69.60;;;;;;5085119;28;20201;-63
2023/02/05 03:52:22;;;;;;;6.22;5.63;;;20.00;69.60;;;;;;5079402;28;20212;-63
2023/02/05 03:54:57;;;;;;;8.02;5.63;;;20.00;69.60;;;;;;5087930;28;20231;-63
2023/02/05 03:57:27;;;;;;;7.93;5.50;;;20.00;69.60;;;;;;5084200;28;20213;-63
2023/02/05 03:59:56;;;;;;;8.90;5.63;;;20.00;69.60;;;;;;5073669;28;20196;-63
2023/02/05 04:02:24;;;;;;;6.47;5.68;;;20.00;69.60;;;;;;5082830;28;20209;-63
2023/02/05 04:04:51;;;;;;;6.25;4.75;;;20.00;69.60;;;;;;5082915;28;20208;-62
2023/02/05 04:07:18;;;;;;;7.97;5.70;;;19.90;69.50;;;;;;5083887;28;20208;-64
2023/02/05 04:09:44;;;;;;;6.15;5.15;;;19.90;69.50;;;;;;5083322;28;20216;-63
2023/02/05 04:12:11;;;;;;;6.80;5.50;;;19.90;69.50;;;;;;5081586;28;20216;-62
2023/02/05 04:14:38;;;;;;;6.68;4.90;;;19.90;69.50;;;;;;5079374;28;20718;-63
2023/02/05 04:17:06;;;;;;;7.10;5.90;;;19.90;69.50;;;;;;5078800;28;20295;-63
2023/02/05 04:19:34;;;;;;;7.18;5.03;;;19.90;69.50;;;;;;5078384;28;20568;-62
2023/02/05 04:22:01;;;;;;;7.05;4.50;;;19.90;69.50;;;;;;5083388;28;20572;-63
2023/02/05 04:24:27;;;;;;;5.70;4.30;;;19.90;69.50;;;;;;5083823;28;20573;-63
2023/02/05 04:26:55;;;;;;;5.45;4.40;;;19.90;69.50;;;;;;5088025;28;20200;-63
2023/02/05 04:29:22;;;;;;;6.88;5.22;;;19.90;69.40;;;;;;5080287;28;20288;-63
2023/02/05 04:31:49;;;;;;;6.75;4.82;;;19.90;69.50;;;;;;5080166;28;20201;-63
2023/02/05 04:34:16;;;;;;;7.18;4.70;;;19.90;69.50;;;;;;5077598;28;20221;-62
2023/02/05 04:36:45;;;;;;;5.07;4.10;;;19.90;69.50;;;;;;5080898;28;20576;-63
2023/02/05 04:39:11;;;;;;;6.32;4.72;;;19.90;69.50;;;;;;5081521;28;20204;-62
2023/02/05 04:41:38;;;;;;;6.25;4.53;;;19.90;69.40;;;;;;5084741;28;20199;-63
2023/02/05 04:44:05;;;;;;;6.97;4.85;;;19.90;69.40;;;;;;5083541;28;20200;-62
2023/02/05 04:46:32;;;;;;;5.18;4.47;;;19.90;69.40;;;;;;5084573;28;20201;-63
2023/02/05 04:49:00;;;;;;;5.00;4.50;;;19.90;69.40;;;;;;5087785;28;20203;-63
2023/02/05 04:51:26;;;;;;;5.45;4.90;;;19.90;69.50;;;;;;5086568;28;20200;-63
2023/02/05 04:53:54;;;;;;;7.25;5.15;;;19.80;69.30;;;;;;5092546;28;20217;-63
2023/02/05 04:56:21;;;;;;;5.82;5.20;;;19.80;69.30;;;;;;5082512;28;20198;-63
2023/02/05 04:58:48;;;;;;;5.85;4.47;;;19.80;69.30;;;;;;5080833;28;20208;-63
2023/02/05 05:01:16;;;;;;;6.90;4.63;;;19.80;69.30;;;;;;5080872;28;20193;-63
2023/02/05 05:03:43;;;;;;;5.30;4.60;;;19.80;69.30;;;;;;5077268;28;20203;-63
2023/02/05 05:06:10;;;;;;;5.75;4.95;;;19.80;69.30;;;;;;5080783;28;20578;-63
2023/02/05 05:08:37;;;;;;;6.95;5.07;;;19.80;69.20;;;;;;5087263;28;20197;-63
2023/02/05 05:11:08;;;;;;;7.13;4.97;;;19.80;69.30;;;;;;5074874;28;20191;-62
2023/02/05 05:13:36;;;;;;;5.20;4.40;;;19.80;69.30;;;;;;5085442;28;20196;-62
2023/02/05 05:16:04;;;;;;;5.30;4.68;;;19.80;69.30;;;;;;5083703;28;20192;-63
2023/02/05 05:18:31;;;;;;;8.40;5.45;;;19.80;69.30;;;;;;5076657;28;20201;-63
2023/02/05 05:20:59;;;;;;;7.25;4.75;;;19.80;69.30;;;;;;5076457;28;20202;-64
2023/02/05 05:23:25;;;;;;;5.95;4.57;;;19.80;69.30;;;;;;5081650;28;20659;-62
2023/02/05 05:25:52;;;;;;;6.18;4.05;;;19.80;69.30;;;;;;5084770;28;20206;-63
2023/02/05 05:28:20;;;;;;;4.50;4.05;;;19.80;69.20;;;;;;5087384;28;20196;-62
2023/02/05 05:30:47;;;;;;;5.85;4.80;;;19.80;69.20;;;;;;5078684;28;20201;-63
2023/02/05 05:33:14;;;;;;;5.63;4.60;;;19.70;69.10;;;;;;5085500;28;20207;-63
2023/02/05 05:35:41;;;;;;;5.50;4.75;;;19.80;69.20;;;;;;5091405;28;20629;-61
2023/02/05 05:38:08;;;;;;;6.93;4.90;;;19.70;69.10;;;;;;5083641;28;20208;-63
2023/02/05 05:46:07;;;;;;;4.72;4.32;;;19.70;69.10;;;;;;5079811;28;20246;-62
2023/02/05 05:48:34;;;;;;;4.82;4.20;;;19.70;69.10;;;;;;5083116;28;20197;-62
2023/02/05 05:51:01;;;;;;;5.03;4.40;;;19.70;69.10;;;;;;5084708;28;20204;-63
2023/02/05 05:53:28;;;;;;;6.03;4.57;;;19.70;69.00;;;;;;5087720;28;20216;-61
2023/02/05 05:55:55;;;;;;;5.68;4.57;;;19.70;69.00;;;;;;5086233;28;20227;-64
2023/02/05 05:58:23;;;;;;;4.38;3.97;;;19.70;69.00;;;;;;5084443;28;20223;-64
2023/02/05 06:00:50;;;;;;;5.60;4.22;;;19.70;69.10;;;;;;5084880;28;20205;-63
2023/02/05 06:03:17;;;;;;;5.00;4.50;;;19.70;69.10;;;;;;5085841;28;20221;-61
2023/02/05 06:05:43;;;;;;;3.97;3.60;;;19.70;69.10;;;;;;5088717;28;20197;-61
2023/02/05 06:08:10;;;;;;;4.35;3.95;;;19.70;69.10;;;;;;5088318;28;20201;-61
2023/02/05 06:10:37;;;;;;;5.03;4.55;;;19.70;69.10;;;;;;5089134;28;20200;-63
2023/02/05 06:13:03;;;;;;;5.65;4.63;;;19.70;69.10;;;;;;5085419;28;20213;-63
2023/02/05 06:15:31;;;;;;;7.07;4.13;;;19.70;69.10;;;;;;5085915;28;20960;-63
2023/02/05 06:17:58;;;;;;;6.25;4.93;;;19.70;69.00;;;;;;5089634;28;20564;-63
2023/02/05 06:20:25;;;;;;;4.13;3.72;;;19.70;69.00;;;;;;5077347;28;20232;-63
2023/02/05 06:22:52;;;;;;;4.32;3.90;;;19.70;68.90;;;;;;5082735;28;20194;-63
2023/02/05 06:25:19;;;;;;;4.90;4.07;;;19.70;68.90;;;;;;5086371;28;20672;-62
2023/02/05 06:27:45;;;;;;;7.10;4.38;;;19.70;68.90;;;;;;5081956;28;20699;-63
2023/02/05 06:30:13;;;;;;;4.55;4.13;;;19.70;68.90;;;;;;5080874;28;20571;-63
2023/02/05 06:32:41;;;;;;;5.47;4.60;;;19.70;68.90;;;;;;5073313;28;20204;-63
2023/02/05 06:35:08;;;;;;;6.65;5.13;;;19.70;68.90;;;;;;5082058;28;20688;-62
2023/02/05 06:37:35;;;;;;;4.60;4.20;;;19.70;68.90;;;;;;5080434;28;20205;-63
2023/02/05 06:40:01;;;;;;;4.28;3.88;;;19.70;68.90;;;;;;5075616;28;20200;-63
2023/02/05 06:42:28;;;;;;;6.78;4.75;;;19.70;68.90;;;;;;5074703;28;20207;-61
2023/02/05 06:44:55;;;;;;;5.20;4.72;;;19.70;68.90;;;;;;5087024;28;20204;-63
2023/02/05 06:47:21;;;;;;;6.18;4.80;;;19.70;68.90;;;;;;5080748;28;20579;-63
2023/02/05 06:49:49;;;;;;;5.00;4.00;;;19.70;68.90;;;;;;5080748;28;20189;-63
2023/02/05 06:52:16;;;;;;;4.63;3.70;;;19.70;68.90;;;;;;5078292;28;20566;-63
2023/02/05 06:54:43;;;;;;;4.95;4.55;;;19.70;68.90;;;;;;5077236;28;20218;-63
2023/02/05 06:57:10;;;;;;;4.00;3.50;;;19.70;68.90;;;;;;5076822;28;20206;-63
2023/02/05 06:59:37;;;;;;;5.30;4.75;;;19.70;68.80;;;;;;5073154;28;20232;-63
2023/02/05 07:02:05;;;;;;;7.22;4.47;;;19.70;69.70;;;;;;5076363;28;20197;-63
2023/02/05 07:04:31;;;;;;;6.45;4.18;;;19.70;68.70;;;;;;5079590;28;20211;-63
2023/02/05 07:06:59;;;;;;;4.70;4.25;;;19.70;69.10;;;;;;5090734;28;20212;-63
2023/02/05 07:09:26;;;;;;;4.38;3.40;;;19.80;68.90;;;;;;5089153;28;20201;-64
2023/02/05 07:11:53;;;;;;;3.95;3.63;;;19.80;68.90;;;;;;5085027;28;20569;-62
2023/02/05 07:14:19;;;;;;;5.18;4.25;;;19.80;68.90;;;;;;5085156;28;20224;-63
2023/02/05 07:16:46;;;;;;;4.65;4.25;;;19.80;68.90;;;;;;5085983;28;20216;-63
2023/02/05 07:19:13;;;;;;;4.43;4.00;;;19.80;68.90;;;;;;5083620;28;20200;-62
2023/02/05 07:21:40;;;;;;;3.90;3.50;;;19.80;68.90;;;;;;5083239;28;20205;-63
2023/02/05 07:24:08;;;;;;;5.28;4.07;;;19.80;68.90;;;;;;5088841;28;20652;-63
2023/02/05 07:26:35;;;;;;;5.40;3.53;;;19.80;68.90;;;;;;5089411;28;20217;-62
2023/02/05 07:29:02;;;;;;;4.70;4.25;;;19.80;68.90;;;;;;5085553;28;20200;-63
2023/02/05 07:31:29;;;;;;;4.28;3.83;;;19.80;68.90;;;;;;5088666;28;20568;-63
2023/02/05 07:33:56;;;;;;;4.28;3.60;;;19.80;69.00;;;;;;5088582;28;20203;-61
2023/02/05 07:36:22;;;;;;;4.60;3.88;;;19.90;69.10;;;;;;5090072;28;20221;-63
2023/02/05 07:38:49;;;;;;;3.58;3.20;;;19.90;69.20;;;;;;5085968;28;20193;-64
2023/02/05 07:41:17;;;;;;;5.63;4.15;;;19.90;69.20;;;;;;5088087;28;20193;-63
2023/02/05 07:43:44;;;;;;;4.00;3.45;;;19.90;69.30;;;;;;5086397;28;20212;-63
2023/02/05 07:46:13;;;;;;;3.83;3.47;;;19.90;69.40;;;;;;5075177;28;20208;-63
2023/02/05 07:48:40;;;;;;;4.13;3.72;;;19.90;69.40;;;;;;5087030;28;20575;-64
2023/02/05 07:51:07;;;;;;;4.60;4.20;;;19.90;69.50;;;;;;5082505;28;20187;-63
2023/02/05 07:53:34;;;;;;;4.32;3.38;;;19.90;69.50;;;;;;5086094;28;20568;-64
2023/02/05 07:56:03;;;;;;;3.70;3.25;;;19.90;69.60;;;;;;5088819;28;20216;-64
2023/02/05 07:58:31;;;;;;;4.47;3.63;;;19.90;69.70;;;;;;5085672;28;20700;-64
2023/02/05 08:01:00;;;;;;;3.97;3.05;;;19.90;69.70;;;;;;5079921;28;20205;-62
2023/02/05 08:03:27;;;;;;;4.68;3.65;;;19.90;69.80;;;;;;5080613;28;20225;-63
2023/02/05 08:05:54;;;;;;;3.83;3.50;;;19.90;69.80;;;;;;5085767;28;20208;-63
2023/02/05 08:08:21;;;;;;;4.68;3.63;;;19.90;69.80;;;;;;5086737;28;20205;-62
2023/02/05 08:10:47;;;;;;;3.38;3.08;;;19.90;69.80;;;;;;5084896;28;20199;-62
2023/02/05 08:13:14;;;;;;;3.22;2.95;;;19.90;69.90;;;;;;5083638;28;20332;-63
2023/02/05 08:15:42;;;;;;;4.43;3.65;;;19.90;69.90;;;;;;5076713;28;20581;-63
2023/02/05 08:18:09;;;;;;;3.75;3.25;;;20.00;70.10;;;;;;5088046;28;20196;-62
2023/02/05 08:20:35;;;;;;;3.97;3.33;;;20.00;70.00;;;;;;5084979;28;20196;-63
2023/02/05 08:23:03;;;;;;;4.10;3.70;;;20.00;70.10;;;;;;5082889;28;20210;-63
2023/02/05 08:25:31;;;;;;;3.30;3.00;;;20.00;70.10;;;;;;5075065;28;20668;-63
2023/02/05 08:27:57;;;;;;;4.55;3.20;;;20.00;70.10;;;;;;5092395;28;20576;-62
2023/02/05 08:30:24;;;;;;;3.72;3.38;;;20.00;70.40;;;;;;5082596;28;20666;-62
2023/02/05 08:32:52;;;;;;;3.78;3.05;;;20.00;70.50;;;;;;5073883;28;20616;-62
2023/02/05 08:35:19;;;;;;;3.63;3.20;;;20.00;70.50;;;;;;5085144;28;20219;-62
2023/02/05 08:37:46;;;;;;;3.20;2.80;;;20.00;70.40;;;;;;5080719;28;20195;-62
2023/02/05 08:40:13;;;;;;;3.40;2.75;;;20.00;70.40;;;;;;5086089;28;20208;-62
2023/02/05 08:42:40;;;;;;;4.57;3.53;;;20.00;70.40;;;;;;5085560;28;20208;-62
2023/02/05 08:45:08;;;;;;;3.20;2.88;;;20.00;70.40;;;;;;5070062;28;20207;-62
2023/02/05 08:47:35;;;;;;;3.67;3.38;;;20.00;70.30;;;;;;5078038;28;20195;-63
2023/02/05 08:50:04;;;;;;;3.55;2.80;;;20.00;70.30;;;;;;5085622;28;20450;-63
2023/02/05 08:52:31;;;;;;;3.17;2.88;;;20.00;70.20;;;;;;5089479;28;20225;-62
2023/02/05 08:54:58;;;;;;;3.08;2.50;;;20.10;70.40;;;;;;5087985;28;20190;-62
2023/02/05 08:57:27;;;;;;;3.10;2.80;;;20.10;70.30;;;;;;5080445;28;20215;-62
2023/02/05 08:59:54;;;;;;;3.45;3.05;;;20.10;70.20;;;;;;5074472;28;20228;-62
2023/02/05 09:02:20;;;;;;;3.17;2.90;;;20.10;70.10;;;;;;5084214;28;20213;-62
2023/02/05 09:04:47;;;;;;;3.60;3.33;;;20.10;70.10;;;;;;5077534;28;20662;-62
2023/02/05 09:07:15;;;;;;;3.10;2.83;;;20.10;70.10;;;;;;5075204;28;20198;-62
2023/02/05 09:09:42;;;;;;;3.45;3.03;;;20.10;70.10;;;;;;5068697;28;20197;-63
2023/02/05 09:12:09;;;;;;;2.70;2.50;;;20.10;70.10;;;;;;5071955;28;20554;-62
2023/02/05 09:14:36;;;;;;;4.15;3.05;;;20.10;70.00;;;;;;5071182;28;20925;-62
2023/02/05 09:17:03;;;;;;;2.80;2.60;;;20.10;70.00;;;;;;5075054;28;20220;-62
2023/02/05 09:19:30;;;;;;;3.25;2.95;;;20.10;70.00;;;;;;5065740;28;20202;-62
2023/02/05 09:21:57;;;;;;;4.05;3.65;;;20.10;70.00;;;;;;5075142;28;20264;-62
2023/02/05 09:24:25;;;;;;;5.03;3.78;;;20.00;70.10;;;;;;5074929;28;20212;-62
2023/02/05 09:26:52;;;;;;;4.43;3.45;;;20.00;70.10;;;;;;5084287;28;20198;-61
2023/02/05 09:29:19;;;;;;;4.38;3.00;;;20.00;70.10;;;;;;5073908;28;20526;-63
2023/02/05 09:31:45;;;;;;;4.10;3.20;;;20.00;70.10;;;;;;5087862;28;20528;-61
2023/02/05 09:34:13;;;;;;;2.85;2.65;;;20.00;70.10;;;;;;5088733;28;20196;-63
2023/02/05 09:36:40;;;;;;;2.80;2.50;;;20.00;70.10;;;;;;5088137;28;20214;-61
2023/02/05 09:39:08;;;;;;;3.10;2.80;;;20.00;70.00;;;;;;5077331;28;20190;-61
2023/02/05 09:41:42;;;;;;;4.05;2.70;;;20.00;70.10;;;;;;5072235;28;20201;-63
2023/02/05 09:44:16;;;;;;;3.80;3.00;;;20.00;70.00;;;;;;5075647;28;20193;-61
2023/02/05 09:46:50;;;;;;;3.75;2.33;;;20.00;70.10;;;;;;5081334;28;20587;-64
2023/02/05 09:49:19;;;;;;;3.42;2.50;;;20.10;69.80;;;;;;5075693;28;20273;-65
2023/02/05 09:51:47;;;;;;;2.10;1.90;;;19.70;65.70;;;;;;5072357;28;20203;-64
2023/02/05 09:54:17;;;;;;;3.20;1.65;;;19.30;64.40;;;;;;5073366;28;20883;-66
2023/02/05 09:56:47;;;;;;;2.20;1.70;;;19.00;63.10;;;;;;5080439;28;20221;-65
2023/02/05 09:59:17;;;;;;;3.83;1.67;;;18.70;62.40;;;;;;5075633;28;20193;-65
2023/02/05 10:01:48;;;;;;;2.85;1.65;;;18.50;62.10;;;;;;5074929;28;20200;-64
2023/02/05 10:04:15;;;;;;;2.05;1.10;;;18.20;62.00;;;;;;5080951;28;20683;-65
2023/02/05 10:07:04;;;;;;;3.15;1.30;;;18.10;63.20;;;;;;5072225;28;20200;-66
2023/02/05 10:09:54;;;;;;;1.95;1.30;;;18.00;62.00;;;;;;5078199;28;20231;-65
2023/02/05 10:12:34;;;;;;;1.23;0.80;;;17.70;62.20;;;;;;5085561;28;20276;-66
2023/02/05 10:15:17;;;;;;;1.92;0.98;;;17.60;62.60;;;;;;5075238;28;20203;-65
2023/02/05 10:17:57;;;;;;;1.00;0.80;;;17.60;62.60;;;;;;5075523;28;20286;-66
2023/02/05 10:20:40;;;;;;;1.95;1.02;;;17.50;62.80;;;;;;5084382;28;20198;-65
2023/02/05 10:23:15;;;;;;;1.55;1.00;;;17.30;63.20;;;;;;5080203;28;20210;-66
2023/02/05 10:25:58;;;;;;;1.85;1.00;;;17.20;63.60;;;;;;5073007;28;20202;-66
2023/02/05 10:28:57;;;;;;;1.50;1.15;;;17.00;64.00;;;;;;5075124;28;20202;-66
2023/02/05 10:31:41;;;;;;;1.70;1.10;;;16.90;64.20;;;;;;5074390;28;20683;-66
2023/02/05 10:34:19;;;;;;;4.40;1.45;;;16.90;64.70;;;;;;5079880;28;20799;-66
2023/02/05 10:36:50;;;;;;;2.25;1.33;;;16.70;65.00;;;;;;5078577;28;20225;-65
2023/02/05 10:39:20;;;;;;;1.80;1.55;;;16.60;65.50;;;;;;5081709;28;20650;-65
2023/02/05 10:41:51;;;;;;;1.85;1.20;;;16.50;65.90;;;;;;5076555;28;20272;-66
2023/02/05 10:44:25;;;;;;;1.40;1.00;;;16.30;66.60;;;;;;5084343;28;20209;-66
2023/02/05 10:46:57;;;;;;;2.30;1.50;;;16.30;67.00;;;;;;5073432;28;20561;-66
2023/02/05 10:49:28;;;;;;;1.50;1.10;;;16.20;67.20;;;;;;5089189;28;20205;-66
2023/02/05 10:51:55;;;;;;;4.97;1.25;;;16.20;67.30;;;;;;5088484;28;20251;-66
2023/02/05 10:54:27;;;;;;;2.60;1.33;;;16.20;67.40;;;;;;5081938;28;20801;-65
2023/02/05 10:56:54;;;;;;;2.03;1.30;;;16.10;67.90;;;;;;5073018;28;20237;-66
2023/02/05 10:59:25;;;;;;;2.33;1.02;;;16.00;68.10;;;;;;5083091;28;20205;-66
2023/02/05 11:01:52;;;;;;;2.85;1.27;;;16.00;68.50;;;;;;5073847;28;20193;-65
2023/02/05 11:04:28;;;;;;;2.08;1.55;;;15.80;69.00;;;;;;5073356;28;20203;-66
2023/02/05 11:06:54;;;;;;;1.40;0.90;;;15.70;69.30;;;;;;5070868;28;20208;-65
2023/02/05 11:09:30;;;;;;;2.78;1.05;;;15.70;69.80;;;;;;5075885;28;20206;-66
2023/02/05 11:12:00;;;;;;;1.30;0.85;;;15.60;70.00;;;;;;5081409;28;20237;-66
2023/02/05 11:14:33;;;;;;;1.40;0.90;;;15.50;70.40;;;;;;5080083;28;20204;-64
2023/02/05 11:17:05;;;;;;;3.08;0.80;;;15.60;70.50;;;;;;5082524;28;20616;-66
2023/02/05 11:19:32;;;;;;;1.10;0.80;;;15.50;71.40;;;;;;5083020;28;20229;-65
2023/02/05 11:22:01;;;;;;;1.55;1.45;;;15.90;70.00;;;;;;5082159;28;20191;-64
2023/02/05 11:24:31;;;;;;;1.55;1.05;;;16.40;68.80;;;;;;5083214;28;20220;-64
2023/02/05 11:27:24;;;;;;;1.23;1.08;;;16.80;68.10;;;;;;5082680;28;20190;-64
2023/02/05 11:29:52;;;;;;;1.10;0.90;;;17.00;67.60;;;;;;5077159;28;20247;-64
2023/02/05 11:32:20;;;;;;;1.10;0.85;;;17.20;67.30;;;;;;5085822;28;20289;-64
2023/02/05 11:34:47;;;;;;;1.67;1.38;;;17.30;67.30;;;;;;5083988;28;20217;-64
2023/02/05 11:37:17;;;;;;;2.05;1.00;;;17.50;67.30;;;;;;5076962;28;20229;-62
2023/02/05 11:39:45;;;;;;;1.30;1.00;;;17.50;67.20;;;;;;5078515;28;20658;-65
2023/02/05 11:42:19;;;;;;;1.83;1.30;;;17.60;67.10;;;;;;5077977;28;20197;-67
2023/02/05 11:44:49;;;;;;;1.48;1.20;;;17.70;67.30;;;;;;5081385;28;20194;-66
2023/02/05 11:47:26;;;;;;;3.05;1.58;;;17.70;67.40;;;;;;5074964;28;20216;-67
2023/02/05 11:49:53;;;;;;;2.65;1.13;;;17.80;67.40;;;;;;5065148;28;20201;-66
2023/02/05 11:52:26;;;;;;;3.45;1.40;;;17.80;67.40;;;;;;5077617;28;20197;-67
2023/02/05 11:54:53;;;;;;;1.50;1.20;;;17.90;67.50;;;;;;5072505;28;20206;-67
2023/02/05 11:57:34;;;;;;;2.15;1.42;;;17.90;67.60;;;;;;5082776;28;20577;-67
2023/02/05 12:00:18;;;;;;;1.60;1.35;;;18.00;67.80;;;;;;5074819;28;20230;-66
2023/02/05 12:02:50;;;;;;;1.35;1.25;;;18.00;67.90;;;;;;5084817;28;20210;-64
2023/02/05 12:05:19;;;;;;;3.75;1.52;;;18.10;68.10;;;;;;5080178;28;20213;-65
2023/02/05 12:07:51;;;;;;;2.97;1.95;;;18.10;68.00;;;;;;5084701;28;20825;-66
2023/02/05 12:10:25;;;;;;;1.70;1.20;;;18.10;67.90;;;;;;5082598;28;20233;-62
2023/02/05 12:13:01;;;;;;;1.58;1.20;;;18.20;68.20;;;;;;5077384;28;20225;-67
2023/02/05 12:15:36;;;;;;;2.50;1.20;;;18.20;68.10;;;;;;5080368;28;20217;-69
2023/02/05 12:18:14;;;;;;;1.58;1.10;;;18.30;68.40;;;;;;5079233;28;20227;-68
2023/02/05 12:20:49;;;;;;;1.83;1.30;;;18.30;68.90;;;;;;5083970;28;20202;-69
2023/02/05 12:23:33;;;;;;;1.33;1.23;;;18.40;69.20;;;;;;5084575;28;20198;-65
2023/02/05 12:26:26;;;;;;;1.50;1.33;;;18.50;69.70;;;;;;5085315;28;20196;-63
2023/02/05 12:29:03;;;;;;;1.50;1.15;;;18.50;70.10;;;;;;5075065;28;20229;-62
2023/02/05 12:31:43;;;;;;;2.40;2.20;;;18.60;70.10;;;;;;5079146;28;20233;-64
2023/02/05 12:34:23;;;;;;;1.90;1.27;;;18.60;70.30;;;;;;5083617;28;20532;-68
2023/02/05 12:37:04;;;;;;;1.73;1.20;;;18.70;70.30;;;;;;5083099;28;20215;-66
2023/02/05 12:39:40;;;;;;;1.75;1.35;;;18.80;70.50;;;;;;5076293;28;20569;-64
2023/02/05 12:42:24;;;;;;;1.65;0.93;;;18.80;70.50;;;;;;5079061;28;20290;-67
2023/02/05 12:45:06;;;;;;;1.35;1.15;;;18.90;70.60;;;;;;5081552;28;20215;-71
2023/02/05 12:47:50;;;;;;;1.20;1.08;;;18.90;70.60;;;;;;5073224;28;20198;-66
2023/02/05 12:50:40;;;;;;;1.15;1.05;;;18.90;70.60;;;;;;5072296;28;20232;-65
2023/02/05 12:53:21;;;;;;;1.20;1.00;;;19.00;70.70;;;;;;5079179;28;20202;-68
2023/02/05 12:56:04;;;;;;;1.60;1.20;;;19.00;70.60;;;;;;5080511;28;20200;-72
2023/02/05 12:58:37;;;;;;;2.67;1.45;;;19.10;70.70;;;;;;5083752;28;20196;-71
2023/02/05 13:01:08;;;;;;;2.42;1.10;;;19.10;70.70;;;;;;5076243;28;20204;-68
2023/02/05 13:03:41;;;;;;;2.75;1.40;;;19.10;70.70;;;;;;5076134;28;20204;-64
2023/02/05 13:06:13;;;;;;;1.13;1.02;;;19.20;70.80;;;;;;5074995;28;20197;-71
2023/02/05 13:08:43;;;;;;;2.63;1.67;;;19.20;70.70;;;;;;5078950;28;20197;-63
2023/02/05 13:11:16;;;;;;;1.80;1.38;;;19.30;70.90;;;;;;5078863;28;20205;-65